Time;durP1;ratioP1;P1;durP2;ratioP2;P2;SDS_P1;SDS_P2;PMS_P1;PMS_P2;Temp;Humidity;BMP_temperature;BMP_pressure;BME280_temperature;BME280_humidity;BME280_pressure;Samples;Min_cycle;Max_cycle;Signal;HPM_P1;HPM_P2
2021/12/04 00:02:07;;;;;;;3.10;1.05;;;5.80;99.90;;;;;;5040429;28;20031;-63
2021/12/04 00:04:39;;;;;;;1.33;0.70;;;5.70;99.90;;;;;;5057732;28;20040;-63
2021/12/04 00:07:08;;;;;;;2.03;0.80;;;5.70;99.90;;;;;;5039520;28;20029;-63
2021/12/04 00:09:35;;;;;;;1.00;0.68;;;5.70;99.90;;;;;;5039438;28;20382;-62
2021/12/04 00:12:05;;;;;;;2.63;0.90;;;5.60;99.90;;;;;;5056774;28;20067;-61
2021/12/04 00:14:32;;;;;;;1.75;0.77;;;5.70;99.90;;;;;;5057180;28;20474;-63
2021/12/04 00:16:58;;;;;;;3.22;0.88;;;5.70;99.90;;;;;;5057255;28;20029;-60
2021/12/04 00:19:25;;;;;;;0.90;0.50;;;5.70;99.90;;;;;;5056887;28;20471;-62
2021/12/04 00:21:52;;;;;;;1.40;0.75;;;5.70;99.90;;;;;;5056991;28;20049;-60
2021/12/04 00:24:18;;;;;;;1.90;0.70;;;5.60;99.90;;;;;;5038452;28;20119;-61
2021/12/04 00:26:47;;;;;;;2.35;0.82;;;5.70;99.90;;;;;;5056452;28;20451;-63
2021/12/04 00:29:13;;;;;;;1.98;0.80;;;5.70;99.90;;;;;;5056653;28;20355;-61
2021/12/04 00:31:44;;;;;;;2.67;1.15;;;5.60;99.90;;;;;;5056202;28;20037;-62
2021/12/04 00:34:10;;;;;;;1.27;0.95;;;5.60;99.90;;;;;;5038680;28;20025;-63
2021/12/04 00:50:05;;;;;;;1.48;0.70;;;5.60;99.90;;;;;;5056066;28;20028;-62
2021/12/04 00:52:31;;;;;;;3.75;0.95;;;5.50;99.90;;;;;;5038347;28;20029;-62
2021/12/04 00:54:56;;;;;;;1.97;1.00;;;5.50;99.90;;;;;;5056279;28;20018;-62
2021/12/04 00:57:22;;;;;;;2.43;0.70;;;5.50;99.90;;;;;;5038442;28;20029;-63
2021/12/04 00:59:48;;;;;;;2.45;1.02;;;5.50;99.90;;;;;;5037994;28;20021;-60
2021/12/04 01:02:14;;;;;;;2.53;0.93;;;5.50;99.90;;;;;;5038407;28;20063;-62
2021/12/04 01:04:39;;;;;;;1.08;0.63;;;5.40;99.90;;;;;;5056637;28;20025;-61
2021/12/04 01:07:06;;;;;;;1.83;0.90;;;5.40;99.90;;;;;;5056066;28;20037;-62
2021/12/04 01:09:32;;;;;;;0.80;0.50;;;5.40;99.90;;;;;;5056517;28;20083;-62
2021/12/04 01:11:58;;;;;;;2.70;0.77;;;5.30;99.90;;;;;;5056224;28;20021;-61
2021/12/04 01:14:28;;;;;;;4.20;0.90;;;5.30;99.90;;;;;;5056096;28;20031;-62
2021/12/04 01:16:55;;;;;;;1.50;0.68;;;5.20;99.90;;;;;;5055822;28;20051;-61
2021/12/04 01:19:21;;;;;;;2.50;0.98;;;5.20;99.90;;;;;;5037021;28;20466;-61
2021/12/04 01:21:49;;;;;;;1.33;0.70;;;5.00;99.90;;;;;;5037034;28;20127;-61
2021/12/04 01:24:15;;;;;;;0.68;0.55;;;5.00;99.90;;;;;;5055363;28;20131;-61
2021/12/04 01:26:41;;;;;;;1.63;0.60;;;5.00;99.90;;;;;;5054922;28;20041;-62
2021/12/04 01:29:06;;;;;;;1.17;0.67;;;5.00;99.90;;;;;;5055252;28;20025;-61
2021/12/04 01:31:32;;;;;;;2.37;0.87;;;5.00;99.90;;;;;;5060327;22;20033;-64
2021/12/04 01:33:58;;;;;;;1.52;0.70;;;5.00;99.90;;;;;;5054600;28;20029;-63
2021/12/04 01:36:24;;;;;;;0.87;0.50;;;5.00;99.90;;;;;;5055015;28;20460;-63
2021/12/04 01:38:51;;;;;;;1.33;0.70;;;4.90;99.90;;;;;;5054428;28;20061;-63
2021/12/04 01:41:17;;;;;;;2.28;1.17;;;5.00;99.90;;;;;;5054166;28;20025;-63
2021/12/04 01:43:43;;;;;;;2.88;1.00;;;4.90;99.90;;;;;;5053908;28;20051;-64
2021/12/04 01:46:09;;;;;;;8.60;3.10;;;4.80;99.90;;;;;;5053659;28;20432;-63
2021/12/04 01:48:34;;;;;;;2.25;0.75;;;4.80;99.90;;;;;;5037495;28;20507;-63
2021/12/04 01:51:01;;;;;;;1.97;0.60;;;4.90;99.90;;;;;;5055981;28;20052;-63
2021/12/04 01:53:27;;;;;;;1.52;0.75;;;4.90;99.90;;;;;;5056564;28;20025;-63
2021/12/04 01:55:55;;;;;;;2.13;1.08;;;4.90;99.90;;;;;;5056000;28;20109;-64
2021/12/04 01:58:22;;;;;;;9.20;1.88;;;5.00;99.90;;;;;;5055929;28;20025;-63
2021/12/04 02:00:48;;;;;;;8.52;3.85;;;4.90;99.90;;;;;;5055614;28;20025;-64
2021/12/04 02:03:14;;;;;;;2.67;1.30;;;4.90;99.90;;;;;;5054069;28;20040;-64
2021/12/04 02:05:41;;;;;;;2.75;1.40;;;4.90;99.90;;;;;;5035599;28;20147;-64
2021/12/04 02:08:07;;;;;;;;;;;5.00;99.90;;;;;;5054234;28;20029;-63
2021/12/04 02:10:34;;;;;;;1.08;0.60;;;4.90;99.90;;;;;;5053574;28;20034;-64
2021/12/04 02:13:00;;;;;;;;;;;4.90;99.90;;;;;;5036840;28;20025;-64
2021/12/04 02:15:26;;;;;;;10.60;3.72;;;5.00;99.90;;;;;;5053413;28;19905;-64
2021/12/04 02:17:52;;;;;;;1.95;1.13;;;5.00;99.90;;;;;;5053463;28;20029;-63
2021/12/04 02:20:23;;;;;;;7.10;3.78;;;5.00;99.90;;;;;;5035572;28;20029;-63
2021/12/04 02:22:49;;;;;;;11.85;5.85;;;4.90;99.90;;;;;;5053148;28;20040;-65
2021/12/04 02:25:15;;;;;;;1.80;1.07;;;4.90;99.90;;;;;;5053160;28;20033;-65
2021/12/04 02:27:42;;;;;;;1.42;0.57;;;4.90;99.90;;;;;;5053260;28;20079;-65
2021/12/04 02:30:11;;;;;;;3.08;1.10;;;4.90;99.90;;;;;;5035200;28;20021;-65
2021/12/04 02:32:37;;;;;;;2.72;1.30;;;4.80;99.90;;;;;;5053058;28;20166;-63
2021/12/04 02:35:05;;;;;;;3.00;1.60;;;4.70;99.90;;;;;;5055111;28;20052;-64
2021/12/04 02:37:32;;;;;;;2.63;1.60;;;4.60;99.90;;;;;;5064479;28;20473;-62
2021/12/04 02:39:59;;;;;;;7.20;1.70;;;4.60;99.90;;;;;;5053605;28;20032;-63
2021/12/04 02:42:28;;;;;;;;;;;4.50;99.90;;;;;;5053706;28;20021;-63
2021/12/04 02:44:54;;;;;;;3.08;1.80;;;4.40;99.90;;;;;;5053788;28;19905;-63
2021/12/04 02:47:20;;;;;;;5.68;2.08;;;4.40;99.90;;;;;;5035963;28;20112;-63
2021/12/04 02:49:45;;;;;;;3.60;1.85;;;4.40;99.90;;;;;;5053529;28;20423;-64
2021/12/04 02:52:12;;;;;;;3.33;1.73;;;4.30;99.90;;;;;;5053487;28;20424;-63
2021/12/04 02:54:39;;;;;;;5.18;2.15;;;4.50;99.90;;;;;;5053084;28;20101;-63
2021/12/04 02:57:07;;;;;;;4.78;2.13;;;4.40;99.90;;;;;;5055315;28;20385;-63
2021/12/04 02:59:34;;;;;;;6.50;2.50;;;4.30;99.90;;;;;;5057301;28;20032;-63
2021/12/04 03:01:59;;;;;;;4.40;2.30;;;4.40;99.90;;;;;;5056834;28;20021;-63
2021/12/04 03:04:27;;;;;;;7.40;2.87;;;4.20;99.90;;;;;;5056753;28;20436;-63
2021/12/04 03:06:53;;;;;;;3.30;2.20;;;4.10;99.90;;;;;;5056954;28;20071;-63
2021/12/04 03:09:19;;;;;;;3.53;2.33;;;4.10;99.90;;;;;;5056839;28;20021;-64
2021/12/04 03:11:45;;;;;;;7.03;2.63;;;4.00;99.90;;;;;;5038822;28;20033;-63
2021/12/04 03:14:11;;;;;;;7.13;3.37;;;4.00;99.90;;;;;;5056457;28;20029;-64
2021/12/04 03:16:39;;;;;;;5.63;3.47;;;4.00;99.90;;;;;;5038445;28;20297;-64
2021/12/04 03:19:06;;;;;;;6.25;3.35;;;4.00;99.90;;;;;;5056574;28;20490;-63
2021/12/04 03:21:33;;;;;;;6.75;3.40;;;4.00;99.90;;;;;;5056553;28;20021;-63
2021/12/04 03:24:03;;;;;;;6.00;3.03;;;4.00;99.90;;;;;;5056545;28;20025;-64
2021/12/04 03:26:28;;;;;;;6.50;2.95;;;4.00;99.90;;;;;;5056598;28;20381;-63
2021/12/04 03:28:56;;;;;;;9.90;4.50;;;4.00;99.90;;;;;;5056199;28;20025;-63
2021/12/04 03:31:41;;;;;;;5.50;3.25;;;4.00;99.90;;;;;;5056427;28;20052;-63
2021/12/04 03:42:21;;;;;;;6.10;3.13;;;3.60;99.90;;;;;;5056189;28;20032;-65
2021/12/04 03:44:47;;;;;;;3.70;2.45;;;3.70;99.90;;;;;;5056455;28;20025;-65
2021/12/04 03:47:12;;;;;;;10.88;2.78;;;3.60;99.90;;;;;;5056674;28;20039;-64
2021/12/04 03:49:38;;;;;;;4.73;2.80;;;3.60;99.90;;;;;;5056119;28;20024;-65
2021/12/04 03:52:05;;;;;;;4.77;2.80;;;3.50;99.90;;;;;;5056602;28;20458;-65
2021/12/04 03:54:31;;;;;;;4.43;2.88;;;3.50;99.90;;;;;;5038185;28;20366;-65
2021/12/04 03:57:05;;;;;;;4.23;2.70;;;3.50;99.90;;;;;;5055925;28;20116;-65
2021/12/04 03:59:33;;;;;;;5.05;3.47;;;3.50;99.90;;;;;;5056836;28;20025;-65
2021/12/04 04:01:58;;;;;;;6.18;2.95;;;3.50;99.90;;;;;;5056257;28;20052;-65
2021/12/04 04:04:24;;;;;;;5.07;3.05;;;3.40;99.90;;;;;;5056172;28;20061;-65
2021/12/04 04:06:50;;;;;;;5.20;3.27;;;3.40;99.90;;;;;;5056683;28;20573;-65
2021/12/04 04:09:16;;;;;;;5.28;3.10;;;3.30;99.90;;;;;;5055640;28;20021;-65
2021/12/04 04:11:42;;;;;;;4.07;3.25;;;3.40;99.90;;;;;;5055590;28;20025;-65
2021/12/04 04:14:08;;;;;;;5.45;3.25;;;3.40;99.90;;;;;;5037694;28;20108;-66
2021/12/04 04:16:37;;;;;;;6.10;3.15;;;3.40;99.90;;;;;;5055536;28;20540;-65
2021/12/04 04:19:03;;;;;;;7.65;3.67;;;3.30;99.90;;;;;;5056132;28;20335;-66
2021/12/04 04:21:30;;;;;;;10.00;4.07;;;3.40;99.90;;;;;;5055677;28;20056;-65
2021/12/04 04:23:55;;;;;;;5.47;3.15;;;3.40;99.90;;;;;;5056265;28;20435;-66
2021/12/04 04:26:21;;;;;;;7.17;3.80;;;3.40;99.90;;;;;;5056149;28;20057;-65
2021/12/04 04:28:46;;;;;;;8.40;3.70;;;3.50;99.90;;;;;;5055652;28;20033;-65
2021/12/04 04:31:13;;;;;;;6.23;3.87;;;3.40;99.90;;;;;;5055641;28;20021;-65
2021/12/04 04:33:42;;;;;;;5.97;3.45;;;3.50;99.90;;;;;;5037095;28;20119;-66
2021/12/04 04:36:30;;;;;;;7.57;3.85;;;3.50;99.90;;;;;;5055363;28;20048;-65
2021/12/04 04:58:39;;;;;;;11.25;6.07;;;3.60;99.90;;;;;;5054791;28;20497;-66
2021/12/04 05:14:36;;;;;;;10.30;5.97;;;3.50;99.90;;;;;;5054430;28;20025;-65
2021/12/04 05:17:07;;;;;;;10.88;6.20;;;3.50;99.90;;;;;;5054154;28;20557;-66
2021/12/04 05:19:52;;;;;;;11.23;6.53;;;3.50;99.90;;;;;;5053962;28;20116;-66
2021/12/04 05:22:18;;;;;;;13.77;7.22;;;3.60;99.90;;;;;;5053834;28;20533;-66
2021/12/04 05:24:44;;;;;;;14.75;6.82;;;3.60;99.90;;;;;;5054065;28;20535;-66
2021/12/04 05:27:10;;;;;;;12.60;7.33;;;3.60;99.90;;;;;;5053912;28;20029;-66
2021/12/04 05:29:36;;;;;;;13.52;7.65;;;3.60;99.90;;;;;;5054134;28;20442;-65
2021/12/04 05:32:04;;;;;;;15.18;6.75;;;3.50;99.90;;;;;;5053686;28;20033;-65
2021/12/04 05:34:30;;;;;;;12.27;6.85;;;3.50;99.90;;;;;;5053804;28;20492;-65
2021/12/04 05:36:56;;;;;;;12.50;6.88;;;3.50;99.90;;;;;;5053771;28;20104;-65
2021/12/04 05:39:22;;;;;;;14.00;7.18;;;3.50;99.90;;;;;;5054528;28;20036;-65
2021/12/04 05:41:48;;;;;;;13.00;7.63;;;3.50;99.90;;;;;;5035814;28;20025;-66
2021/12/04 05:44:16;;;;;;;12.63;6.80;;;3.50;99.90;;;;;;5053644;28;20039;-67
2021/12/04 05:46:52;;;;;;;11.13;6.57;;;3.50;99.90;;;;;;5053627;28;20028;-65
2021/12/04 05:49:23;;;;;;;12.05;7.28;;;3.50;99.90;;;;;;5053748;28;20017;-66
2021/12/04 05:56:46;;;;;;;11.60;6.75;;;3.60;99.90;;;;;;5054010;28;20381;-66
2021/12/04 05:59:12;;;;;;;14.33;7.10;;;3.60;99.90;;;;;;5054502;28;20035;-64
2021/12/04 06:01:37;;;;;;;13.47;6.63;;;3.50;99.90;;;;;;5054626;28;20263;-65
2021/12/04 06:04:03;;;;;;;10.80;6.50;;;3.50;99.90;;;;;;5036294;28;20024;-66
2021/12/04 06:06:29;;;;;;;13.00;7.47;;;3.50;99.90;;;;;;5053841;28;20048;-66
2021/12/04 06:08:55;;;;;;;12.05;6.20;;;3.50;99.90;;;;;;5036158;28;20287;-66
2021/12/04 06:11:21;;;;;;;12.27;7.13;;;3.50;99.90;;;;;;5053637;28;20021;-66
2021/12/04 06:13:47;;;;;;;11.68;6.97;;;3.50;99.90;;;;;;5053289;28;20466;-66
2021/12/04 06:16:14;;;;;;;15.07;7.85;;;3.50;99.90;;;;;;5053562;28;20032;-66
2021/12/04 06:18:40;;;;;;;13.98;7.18;;;3.50;99.90;;;;;;5053497;28;20031;-66
2021/12/04 06:23:50;;;;;;;12.50;7.35;;;3.50;99.90;;;;;;5054322;28;20071;-66
2021/12/04 06:26:16;;;;;;;12.00;7.20;;;3.60;99.90;;;;;;5035677;28;20497;-66
2021/12/04 06:28:42;;;;;;;15.15;7.75;;;3.70;99.90;;;;;;5053289;28;20426;-66
2021/12/04 06:31:08;;;;;;;13.43;7.03;;;3.70;99.90;;;;;;5054280;28;20029;-66
2021/12/04 06:33:35;;;;;;;13.10;7.03;;;3.70;99.90;;;;;;5042045;28;20154;-66
2021/12/04 06:36:01;;;;;;;15.25;7.65;;;3.70;99.90;;;;;;5042278;28;20031;-66
2021/12/04 06:38:26;;;;;;;16.27;8.30;;;3.70;99.90;;;;;;5060228;28;20430;-66
2021/12/04 06:40:52;;;;;;;15.55;8.40;;;3.70;99.90;;;;;;5059705;28;20029;-66
2021/12/04 06:43:18;;;;;;;14.80;8.20;;;3.60;99.90;;;;;;5060044;28;20068;-66
2021/12/04 06:45:51;;;;;;;12.30;7.70;;;3.60;99.90;;;;;;5059603;28;20029;-66
2021/12/04 06:48:20;;;;;;;16.35;8.88;;;3.60;99.90;;;;;;5059795;28;20029;-66
2021/12/04 06:50:52;;;;;;;15.95;7.95;;;3.70;99.90;;;;;;5059450;28;20021;-66
2021/12/04 06:55:54;;;;;;;15.23;8.00;;;3.80;99.90;;;;;;5059360;28;20016;-66
2021/12/04 06:58:21;;;;;;;16.17;8.40;;;3.80;99.90;;;;;;5059526;28;20028;-66
2021/12/04 07:00:46;;;;;;;18.88;8.98;;;3.70;99.90;;;;;;5041327;28;20029;-66
2021/12/04 07:03:12;;;;;;;16.37;8.73;;;3.70;99.90;;;;;;5059097;28;20563;-66
2021/12/04 07:05:38;;;;;;;16.80;8.63;;;3.80;99.90;;;;;;5059367;28;20264;-66
2021/12/04 07:08:05;;;;;;;20.17;9.60;;;3.80;99.90;;;;;;5059277;28;20499;-66
2021/12/04 07:10:32;;;;;;;19.00;9.82;;;3.90;99.90;;;;;;5059565;28;20381;-65
2021/12/04 07:12:58;;;;;;;17.38;9.07;;;3.90;99.90;;;;;;5041337;28;20021;-67
2021/12/04 07:15:27;;;;;;;17.05;9.07;;;3.90;99.90;;;;;;5059547;28;20021;-66
2021/12/04 07:17:53;;;;;;;18.60;9.05;;;3.90;99.90;;;;;;5041279;28;20029;-65
2021/12/04 07:20:18;;;;;;;18.63;9.23;;;3.90;99.90;;;;;;5059243;28;20388;-65
2021/12/04 07:22:44;;;;;;;19.50;9.70;;;3.90;99.90;;;;;;5059587;28;20091;-65
2021/12/04 07:25:10;;;;;;;18.00;9.10;;;3.90;99.90;;;;;;5059295;28;20056;-65
2021/12/04 07:27:35;;;;;;;19.10;8.87;;;4.00;99.90;;;;;;5059173;28;20035;-65
2021/12/04 07:30:02;;;;;;;19.13;9.33;;;3.90;99.90;;;;;;5059350;28;20021;-65
2021/12/04 07:32:28;;;;;;;19.70;10.48;;;3.90;99.90;;;;;;5058850;28;20078;-66
2021/12/04 07:34:53;;;;;;;15.93;9.17;;;3.90;99.90;;;;;;5059265;28;20021;-65
2021/12/04 07:37:20;;;;;;;17.40;9.38;;;4.10;99.90;;;;;;5059289;28;20432;-66
2021/12/04 07:39:46;;;;;;;22.33;10.27;;;4.10;99.90;;;;;;5041829;28;20498;-65
2021/12/04 07:42:11;;;;;;;19.70;9.87;;;4.10;99.90;;;;;;5059206;28;20061;-66
2021/12/04 07:44:37;;;;;;;17.73;9.53;;;4.10;99.90;;;;;;5055229;28;20029;-66
2021/12/04 07:47:03;;;;;;;19.57;8.90;;;4.10;99.90;;;;;;5056769;28;20020;-65
2021/12/04 07:49:28;;;;;;;16.83;8.93;;;4.20;99.90;;;;;;5055777;28;20013;-65
2021/12/04 07:51:54;;;;;;;20.77;10.27;;;4.20;99.90;;;;;;5055855;28;20072;-65
2021/12/04 07:54:20;;;;;;;19.37;9.80;;;4.20;99.90;;;;;;5056104;28;20025;-65
2021/12/04 07:56:45;;;;;;;20.93;9.73;;;4.30;99.90;;;;;;5055814;28;20027;-65
2021/12/04 07:59:11;;;;;;;18.90;9.83;;;4.30;99.90;;;;;;5056027;28;20564;-65
2021/12/04 08:01:37;;;;;;;19.30;9.73;;;4.30;99.90;;;;;;5055547;28;20123;-63
2021/12/04 08:04:04;;;;;;;19.42;9.50;;;4.40;99.90;;;;;;5055908;28;20043;-65
2021/12/04 08:06:33;;;;;;;17.10;8.85;;;4.40;99.90;;;;;;5055474;28;20025;-65
2021/12/04 08:08:59;;;;;;;17.17;8.48;;;4.40;99.90;;;;;;5037497;28;20096;-65
2021/12/04 08:11:28;;;;;;;21.13;9.57;;;4.50;99.90;;;;;;5055411;28;20032;-66
2021/12/04 08:13:54;;;;;;;20.75;9.98;;;4.50;99.90;;;;;;5037531;28;20025;-64
2021/12/04 08:16:24;;;;;;;;;;;4.50;99.90;;;;;;5055603;28;20023;-64
2021/12/04 08:18:52;;;;;;;15.18;8.50;;;4.60;99.90;;;;;;5055417;28;19904;-64
2021/12/04 08:21:17;;;;;;;17.80;8.45;;;4.60;99.90;;;;;;5055576;28;20497;-64
2021/12/04 08:23:43;;;;;;;16.88;9.35;;;4.60;99.90;;;;;;5055129;28;20036;-64
2021/12/04 08:26:09;;;;;;;16.97;9.13;;;4.70;99.90;;;;;;5055105;28;20043;-64
2021/12/04 08:28:34;;;;;;;13.93;8.80;;;4.80;99.90;;;;;;5055305;28;20363;-64
2021/12/04 08:31:00;;;;;;;14.73;8.90;;;4.80;99.90;;;;;;5057612;28;20382;-64
2021/12/04 08:33:26;;;;;;;14.40;8.40;;;4.80;99.90;;;;;;5037680;28;20033;-63
2021/12/04 08:35:52;;;;;;;16.13;8.52;;;4.90;99.90;;;;;;5055016;28;20099;-64
2021/12/04 08:38:18;;;;;;;15.73;8.80;;;5.10;99.90;;;;;;5037747;28;20082;-64
2021/12/04 08:40:44;;;;;;;15.03;8.70;;;5.20;99.90;;;;;;5055406;28;20025;-64
2021/12/04 08:43:10;;;;;;;12.57;7.68;;;5.20;99.90;;;;;;5054739;28;20024;-64
2021/12/04 08:45:37;;;;;;;14.80;8.65;;;5.20;99.90;;;;;;5036844;28;20032;-64
2021/12/04 08:48:03;;;;;;;14.23;7.95;;;5.20;99.90;;;;;;5054615;28;20028;-64
2021/12/04 08:50:30;;;;;;;13.10;7.82;;;5.20;99.90;;;;;;5054754;28;20024;-63
2021/12/04 08:52:59;;;;;;;13.10;7.90;;;5.30;99.90;;;;;;5054622;28;20025;-64
2021/12/04 08:55:26;;;;;;;14.00;8.30;;;5.30;99.90;;;;;;5054644;28;20056;-64
2021/12/04 08:57:52;;;;;;;14.50;8.82;;;5.20;99.90;;;;;;5054763;28;20052;-62
2021/12/04 09:00:21;;;;;;;;;;;5.20;99.90;;;;;;5037735;28;20428;-64
2021/12/04 09:02:47;;;;;;;14.05;8.07;;;5.20;99.90;;;;;;5054539;28;19906;-64
2021/12/04 09:05:15;;;;;;;14.25;7.75;;;5.30;99.90;;;;;;5054713;28;20056;-63
2021/12/04 09:07:41;;;;;;;13.00;7.40;;;5.30;99.90;;;;;;5054328;28;20504;-63
2021/12/04 09:10:08;;;;;;;13.20;7.35;;;5.40;99.90;;;;;;5054214;28;20029;-64
2021/12/04 09:12:34;;;;;;;13.40;7.90;;;5.50;99.90;;;;;;5036056;28;20106;-64
2021/12/04 09:15:05;;;;;;;12.70;8.05;;;5.50;99.90;;;;;;5054279;28;20024;-66
2021/12/04 09:17:30;;;;;;;12.65;7.72;;;5.50;99.90;;;;;;5052373;28;20178;-65
2021/12/04 09:19:56;;;;;;;12.57;7.23;;;5.50;99.90;;;;;;5053888;28;20517;-64
2021/12/04 09:22:28;;;;;;;13.33;8.37;;;5.40;99.90;;;;;;5054206;28;20119;-64
2021/12/04 09:24:56;;;;;;;15.10;8.27;;;5.40;99.90;;;;;;5054502;28;20024;-67
2021/12/04 10:34:34;;;;;;;9.43;6.03;;;6.80;99.90;;;;;;5012055;28;20022;-66
2021/12/04 10:37:12;;;;;;;9.95;6.47;;;6.80;99.90;;;;;;5036400;28;20036;-66
2021/12/04 10:39:38;;;;;;;10.75;6.80;;;6.80;99.90;;;;;;5052823;28;20424;-66
2021/12/04 10:42:09;;;;;;;11.85;7.03;;;6.90;99.90;;;;;;5052940;28;20017;-66
2021/12/04 10:44:41;;;;;;;15.60;8.38;;;6.90;99.90;;;;;;5034773;28;20489;-66
2021/12/04 10:47:14;;;;;;;12.90;7.93;;;7.00;99.90;;;;;;5052719;28;20029;-66
2021/12/04 10:52:47;;;;;;;12.32;7.82;;;7.00;99.90;;;;;;5053270;28;20025;-66
2021/12/04 11:03:42;;;;;;;10.15;6.45;;;7.20;99.90;;;;;;5054678;28;20021;-66
2021/12/04 11:21:01;;;;;;;10.00;6.15;;;7.50;99.90;;;;;;5060247;28;20409;-68
2021/12/04 11:44:24;;;;;;;9.57;5.20;;;7.70;99.90;;;;;;5056165;28;20032;-66
2021/12/04 11:46:56;;;;;;;6.65;4.90;;;7.80;99.90;;;;;;5056212;28;20111;-66
2021/12/04 11:49:25;;;;;;;8.57;5.15;;;7.80;99.90;;;;;;5037947;28;20079;-66
2021/12/04 11:51:57;;;;;;;8.57;5.45;;;7.80;99.90;;;;;;5055622;28;20044;-66
2021/12/04 11:54:30;;;;;;;7.10;5.07;;;7.90;99.90;;;;;;5056376;28;20045;-65
2021/12/04 11:57:05;;;;;;;8.18;5.63;;;7.90;99.90;;;;;;5056256;28;20017;-66
2021/12/04 11:59:33;;;;;;;7.28;5.28;;;8.00;99.90;;;;;;5056115;28;20017;-66
2021/12/04 12:02:02;;;;;;;9.15;5.38;;;8.00;99.90;;;;;;5037872;28;20017;-66
2021/12/04 12:04:34;;;;;;;8.80;4.93;;;8.00;99.90;;;;;;5055945;28;20017;-66
2021/12/04 12:07:13;;;;;;;7.93;4.85;;;8.10;99.90;;;;;;5037535;28;20098;-67
2021/12/04 12:09:40;;;;;;;6.10;4.30;;;8.10;99.90;;;;;;5055849;28;20049;-67
2021/12/04 12:12:09;;;;;;;9.07;5.00;;;8.20;99.90;;;;;;5055883;28;20397;-67
2021/12/04 12:14:55;;;;;;;7.28;3.38;;;8.20;99.90;;;;;;5055348;28;20098;-67
2021/12/04 12:17:40;;;;;;;5.95;2.88;;;8.40;99.90;;;;;;5055292;28;20024;-66
2021/12/04 12:20:15;;;;;;;2.75;1.17;;;8.60;99.90;;;;;;5055325;28;20032;-66
2021/12/04 12:22:54;;;;;;;3.40;1.25;;;8.80;99.90;;;;;;5055131;28;20417;-67
2021/12/04 12:34:07;;;;;;;1.45;1.08;;;9.40;99.90;;;;;;5055066;28;20293;-66
2021/12/04 12:36:33;;;;;;;2.90;1.30;;;9.50;99.90;;;;;;5055241;28;20071;-65
2021/12/04 12:39:08;;;;;;;3.88;1.90;;;9.50;99.90;;;;;;5054664;28;20025;-66
2021/12/04 12:41:44;;;;;;;0.93;0.75;;;9.60;99.90;;;;;;5054694;28;20021;-65
2021/12/04 12:44:28;;;;;;;1.60;0.80;;;9.60;99.90;;;;;;5054723;28;20017;-64
2021/12/04 12:46:57;;;;;;;1.48;0.60;;;9.70;99.90;;;;;;5054543;28;20025;-65
2021/12/04 12:49:33;;;;;;;2.00;1.00;;;9.70;99.90;;;;;;5054907;28;20024;-65
2021/12/04 12:52:01;;;;;;;4.00;1.80;;;9.70;99.90;;;;;;5054746;28;20062;-66
2021/12/04 12:54:49;;;;;;;1.00;0.70;;;9.70;99.90;;;;;;5054673;28;20023;-65
2021/12/04 12:57:25;;;;;;;1.60;0.70;;;9.70;99.90;;;;;;5054506;28;20086;-67
2021/12/04 13:14:09;;;;;;;6.82;3.38;;;9.50;99.90;;;;;;5054810;28;20064;-67
2021/12/04 13:16:35;;;;;;;10.35;7.40;;;9.50;99.90;;;;;;5054512;28;20190;-67
2021/12/04 13:19:06;;;;;;;7.00;3.13;;;9.50;99.90;;;;;;5054109;28;20143;-66
2021/12/04 13:21:38;;;;;;;1.70;1.10;;;9.50;99.90;;;;;;5054250;28;20271;-67
2021/12/04 13:24:06;;;;;;;1.85;1.10;;;9.50;99.90;;;;;;5036092;28;20540;-65
2021/12/04 13:26:35;;;;;;;1.80;0.95;;;9.50;99.90;;;;;;5054040;28;20024;-66
2021/12/04 13:29:04;;;;;;;2.97;1.48;;;9.50;99.90;;;;;;5053905;28;20029;-66
2021/12/04 13:31:32;;;;;;;1.65;0.93;;;9.60;99.90;;;;;;5053830;28;20102;-65
2021/12/04 13:33:58;;;;;;;2.60;1.52;;;9.60;99.90;;;;;;5054233;28;20033;-66
2021/12/04 13:36:28;;;;;;;2.53;1.73;;;9.50;99.90;;;;;;5054021;28;20469;-65
2021/12/04 13:39:07;;;;;;;7.00;3.63;;;9.60;99.90;;;;;;5036158;28;20028;-66
2021/12/04 13:41:34;;;;;;;8.02;4.18;;;9.60;99.90;;;;;;5053095;28;20032;-66
2021/12/04 13:44:02;;;;;;;1.35;0.70;;;9.60;99.90;;;;;;5053999;28;20100;-66
2021/12/04 13:46:36;;;;;;;2.63;1.30;;;9.60;99.90;;;;;;5053528;28;20025;-66
2021/12/04 13:49:04;;;;;;;1.00;0.70;;;9.60;99.90;;;;;;5054712;28;20033;-66
2021/12/04 13:51:29;;;;;;;1.60;0.60;;;9.60;99.90;;;;;;5053891;28;20386;-66
2021/12/04 13:53:55;;;;;;;3.10;1.07;;;9.60;99.90;;;;;;5053566;28;20036;-67
2021/12/04 13:56:22;;;;;;;7.35;2.03;;;9.60;99.90;;;;;;5036095;28;20032;-67
2021/12/04 13:58:57;;;;;;;1.67;0.70;;;9.60;99.90;;;;;;5054197;28;20386;-66
2021/12/04 14:01:23;;;;;;;2.10;1.10;;;9.60;99.90;;;;;;5054179;28;20474;-68
2021/12/04 14:03:55;;;;;;;3.70;1.65;;;9.60;99.90;;;;;;5053308;28;20029;-67
2021/12/04 14:06:20;;;;;;;1.63;0.70;;;9.60;99.90;;;;;;5053690;28;20052;-68
2021/12/04 14:09:16;;;;;;;2.43;0.93;;;9.60;99.90;;;;;;5053228;28;20079;-68
2021/12/04 14:11:42;;;;;;;3.22;1.13;;;9.60;99.90;;;;;;5015239;28;20275;-66
2021/12/04 14:14:21;;;;;;;2.08;0.80;;;9.60;99.90;;;;;;5053983;28;20023;-68
2021/12/04 14:16:51;;;;;;;0.82;0.52;;;9.60;99.90;;;;;;5054586;28;20494;-67
2021/12/04 14:19:20;;;;;;;1.80;0.90;;;9.60;99.90;;;;;;5053456;28;20072;-67
2021/12/04 14:22:19;;;;;;;1.73;0.80;;;9.60;99.90;;;;;;5053187;28;20109;-67
2021/12/04 14:24:56;;;;;;;1.77;0.90;;;9.60;99.90;;;;;;5053605;28;20028;-70
2021/12/04 14:27:30;;;;;;;2.15;0.88;;;9.60;99.90;;;;;;5053651;28;20544;-67
2021/12/04 14:29:58;;;;;;;3.92;1.77;;;9.60;99.90;;;;;;5053280;28;20033;-67
2021/12/04 14:32:26;;;;;;;3.13;1.20;;;9.60;99.90;;;;;;5034886;28;20039;-65
2021/12/04 14:35:07;;;;;;;3.45;1.13;;;9.50;99.90;;;;;;5052673;28;20024;-66
2021/12/04 14:37:34;;;;;;;1.75;0.90;;;9.50;99.90;;;;;;5052925;28;20132;-68
2021/12/04 14:40:00;;;;;;;1.05;0.80;;;9.50;99.90;;;;;;5052772;28;20025;-66
2021/12/04 14:42:29;;;;;;;3.45;1.38;;;9.50;99.90;;;;;;5052864;28;20107;-69
2021/12/04 14:44:56;;;;;;;3.90;1.20;;;9.50;99.90;;;;;;5053461;28;20037;-66
2021/12/04 14:47:27;;;;;;;9.10;5.68;;;9.50;99.90;;;;;;5053598;28;20074;-66
2021/12/04 14:49:58;;;;;;;4.13;1.35;;;9.50;99.90;;;;;;5053255;28;20517;-66
2021/12/04 14:52:25;;;;;;;4.00;2.08;;;9.50;99.90;;;;;;5053909;28;20469;-66
2021/12/04 14:54:52;;;;;;;2.95;1.20;;;9.50;99.90;;;;;;5057390;28;20017;-64
2021/12/04 14:57:24;;;;;;;2.15;1.20;;;9.50;99.90;;;;;;5057068;28;20108;-64
2021/12/04 15:00:11;;;;;;;5.53;3.00;;;9.50;99.90;;;;;;5057296;28;20474;-68
2021/12/04 15:02:37;;;;;;;2.42;1.00;;;9.50;99.90;;;;;;5057509;28;20025;-67
2021/12/04 15:05:05;;;;;;;2.05;1.10;;;9.50;99.90;;;;;;5057671;28;20029;-69
2021/12/04 15:07:33;;;;;;;2.58;1.25;;;9.40;99.90;;;;;;5058105;28;20032;-68
2021/12/04 15:10:17;;;;;;;2.30;1.33;;;9.50;99.90;;;;;;5040495;28;20027;-65
2021/12/04 15:12:43;;;;;;;2.38;1.58;;;9.50;99.90;;;;;;5057903;28;20029;-66
2021/12/04 15:15:10;;;;;;;5.03;1.67;;;9.50;99.90;;;;;;5058928;28;20020;-69
2021/12/04 15:17:36;;;;;;;1.65;1.25;;;9.40;99.90;;;;;;5059358;28;20091;-67
2021/12/04 15:20:11;;;;;;;2.17;1.10;;;9.50;99.90;;;;;;5056864;28;20500;-70
2021/12/04 15:22:44;;;;;;;2.30;1.00;;;9.50;99.90;;;;;;5057398;28;20051;-69
2021/12/04 15:25:16;;;;;;;2.28;1.30;;;9.50;99.90;;;;;;5041412;28;20036;-67
2021/12/04 15:27:42;;;;;;;5.35;1.55;;;9.50;99.90;;;;;;5058285;28;20021;-69
2021/12/04 15:30:11;;;;;;;1.93;1.10;;;9.40;99.90;;;;;;5058319;28;20021;-71
2021/12/04 15:32:39;;;;;;;3.72;1.30;;;9.50;99.90;;;;;;5057490;28;20021;-70
2021/12/04 15:35:32;;;;;;;2.72;1.30;;;9.40;99.90;;;;;;5057191;28;20021;-71
2021/12/04 15:38:06;;;;;;;2.83;1.08;;;9.40;99.90;;;;;;5056784;28;20448;-70
2021/12/04 15:40:50;;;;;;;1.58;1.10;;;9.40;99.90;;;;;;5038244;28;20075;-67
2021/12/04 15:43:27;;;;;;;2.03;0.98;;;9.40;99.90;;;;;;5056311;28;20104;-68
2021/12/04 15:46:12;;;;;;;1.23;0.90;;;9.30;99.90;;;;;;5056868;28;20104;-69
2021/12/04 15:52:47;;;;;;;1.65;0.85;;;9.30;99.90;;;;;;5055847;28;20078;-66
2021/12/04 15:54:38;;;;;;;2.88;1.35;;;9.30;99.90;;;;;;5055781;28;20022;-65
2021/12/04 15:57:14;;;;;;;15.15;7.78;;;9.30;99.90;;;;;;5056039;28;20075;-64
2021/12/04 15:59:46;;;;;;;2.80;1.10;;;9.30;99.90;;;;;;5038011;28;20458;-65
2021/12/04 16:02:15;;;;;;;2.40;1.17;;;9.30;99.90;;;;;;5037700;28;20553;-65
2021/12/04 16:04:43;;;;;;;3.20;1.30;;;9.30;99.90;;;;;;5054644;28;20036;-65
2021/12/04 16:07:09;;;;;;;1.63;0.90;;;9.30;99.90;;;;;;5055263;28;20072;-66
2021/12/04 16:09:38;;;;;;;1.52;1.15;;;9.30;99.90;;;;;;5037656;28;20501;-65
2021/12/04 16:12:08;;;;;;;3.25;1.30;;;9.30;99.90;;;;;;5055381;28;20036;-65
2021/12/04 16:14:37;;;;;;;3.90;2.70;;;9.30;99.90;;;;;;5055720;28;20025;-68
2021/12/04 16:17:05;;;;;;;2.80;1.52;;;9.20;99.90;;;;;;5037575;28;20067;-68
2021/12/04 16:19:33;;;;;;;2.25;1.27;;;9.20;99.90;;;;;;5055181;28;20474;-67
2021/12/04 16:22:07;;;;;;;2.95;1.70;;;9.20;99.90;;;;;;5055371;28;20021;-67
2021/12/04 16:24:35;;;;;;;3.55;1.52;;;9.20;99.90;;;;;;5056037;28;20017;-66
2021/12/04 16:27:11;;;;;;;4.32;1.67;;;9.20;99.90;;;;;;5056440;28;20051;-67
2021/12/04 16:29:40;;;;;;;1.83;0.98;;;9.10;99.90;;;;;;5055634;28;20512;-66